createdAt,value
2022-08-16T00:01:15.426Z,5.47
2022-08-16T00:03:42.581Z,8.57
2022-08-16T00:06:10.070Z,7.22
2022-08-16T00:08:38.017Z,7.72
2022-08-16T00:11:15.903Z,5.53
2022-08-16T00:13:54.202Z,7.03
2022-08-16T00:17:06.371Z,9.40
2022-08-16T00:19:22.757Z,9.18
2022-08-16T00:21:53.144Z,8.18
2022-08-16T00:24:32.402Z,5.82
2022-08-16T00:27:02.196Z,7.10
2022-08-16T00:29:30.136Z,7.70
2022-08-16T00:32:05.287Z,9.48
2022-08-16T00:34:43.710Z,7.95
2022-08-16T00:37:17.381Z,10.38
2022-08-16T00:39:47.901Z,11.07
2022-08-16T00:42:30.796Z,9.18
2022-08-16T00:45:08.274Z,7.78
2022-08-16T00:47:39.470Z,7.15
2022-08-16T00:50:11.845Z,6.15
2022-08-16T00:52:50.134Z,7.40
2022-08-16T00:55:22.873Z,7.78
2022-08-16T00:58:00.145Z,6.30
2022-08-16T01:00:31.968Z,7.18
2022-08-16T01:03:04.353Z,7.97
2022-08-16T01:05:33.077Z,8.10
2022-08-16T01:08:02.462Z,5.53
2022-08-16T01:10:50.239Z,10.63
2022-08-16T01:13:23.341Z,7.07
2022-08-16T01:16:01.121Z,5.75
2022-08-16T01:18:40.720Z,7.82
2022-08-16T01:21:22.172Z,5.90
2022-08-16T01:24:51.985Z,7.65
2022-08-16T01:27:21.028Z,6.45
2022-08-16T01:30:01.319Z,7.60
2022-08-16T01:32:35.851Z,9.98
2022-08-16T01:35:08.512Z,7.78
2022-08-16T01:37:53.843Z,6.53
2022-08-16T01:42:55.459Z,6.75
2022-08-16T01:45:24.191Z,7.25
2022-08-16T01:48:19.986Z,7.55
2022-08-16T01:51:09.722Z,8.73
2022-08-16T01:56:29.557Z,6.60
2022-08-16T01:58:59.397Z,5.97
2022-08-16T02:01:29.139Z,6.00
2022-08-16T02:03:58.491Z,6.95
2022-08-16T02:06:34.263Z,8.23
2022-08-16T02:09:11.834Z,7.85
2022-08-16T02:11:48.537Z,9.18
2022-08-16T02:14:27.436Z,6.38
2022-08-16T02:16:58.744Z,8.80
2022-08-16T02:19:59.094Z,7.22
2022-08-16T02:25:10.298Z,7.03
2022-08-16T02:27:42.423Z,7.40
2022-08-16T02:30:36.879Z,7.30
2022-08-16T02:33:04.510Z,9.10
2022-08-16T02:35:34.051Z,7.95
2022-08-16T02:38:08.620Z,6.28
2022-08-16T02:40:37.453Z,7.72
2022-08-16T02:43:05.307Z,7.07
2022-08-16T02:45:32.970Z,7.70
2022-08-16T02:48:29.867Z,7.68
2022-08-16T02:50:54.853Z,7.35
2022-08-16T02:53:31.673Z,7.03
2022-08-16T02:55:59.215Z,7.63
2022-08-16T02:58:28.262Z,9.23
2022-08-16T03:00:57.460Z,18.27
2022-08-16T03:03:27.424Z,9.13
2022-08-16T03:06:42.022Z,12.63
2022-08-16T03:09:15.057Z,8.35
2022-08-16T03:11:47.769Z,12.52
2022-08-16T03:14:15.089Z,9.27
2022-08-16T03:16:59.964Z,12.30
2022-08-16T03:19:46.861Z,11.50
2022-08-16T03:22:28.474Z,9.77
2022-08-16T03:25:04.473Z,10.90
2022-08-16T03:27:39.031Z,10.77
2022-08-16T03:30:18.272Z,12.35
2022-08-16T03:32:51.366Z,11.02
2022-08-16T03:35:24.328Z,10.40
2022-08-16T03:38:32.865Z,8.88
2022-08-16T03:40:56.146Z,10.85
2022-08-16T03:43:51.632Z,12.45
2022-08-16T03:46:44.933Z,10.27
2022-08-16T03:49:04.769Z,18.33
2022-08-16T03:51:31.964Z,11.23
2022-08-16T03:54:05.367Z,10.13
2022-08-16T03:56:57.125Z,11.18
2022-08-16T03:59:29.622Z,12.25
2022-08-16T04:02:02.810Z,10.45
2022-08-16T04:04:33.401Z,14.05
2022-08-16T04:07:07.084Z,11.75
2022-08-16T04:09:37.948Z,13.48
2022-08-16T04:14:54.476Z,15.60
2022-08-16T04:17:22.123Z,11.30
2022-08-16T04:19:54.993Z,12.23
2022-08-16T04:22:27.564Z,11.65
2022-08-16T04:24:59.503Z,11.65
2022-08-16T04:27:32.397Z,13.70
2022-08-16T04:30:04.321Z,11.23
2022-08-16T04:32:41.747Z,15.75
2022-08-16T04:35:16.498Z,12.32
2022-08-16T04:37:46.109Z,10.05
2022-08-16T04:40:25.192Z,11.27
2022-08-16T04:42:56.055Z,12.60
2022-08-16T04:45:36.737Z,13.82
2022-08-16T04:48:28.168Z,13.45
2022-08-16T04:51:01.031Z,12.27
2022-08-16T04:53:41.218Z,12.70
2022-08-16T04:56:11.383Z,34.40
2022-08-16T04:58:45.857Z,13.07
2022-08-16T05:01:17.682Z,12.60
2022-08-16T05:04:00.336Z,15.02
2022-08-16T05:06:44.713Z,12.95
2022-08-16T05:09:16.405Z,13.82
2022-08-16T05:11:45.805Z,13.48
2022-08-16T05:14:20.181Z,11.70
2022-08-16T05:17:03.664Z,12.75
2022-08-16T05:19:35.985Z,14.40
2022-08-16T05:22:18.370Z,13.77
2022-08-16T05:24:54.903Z,11.52
2022-08-16T05:27:23.263Z,13.27
2022-08-16T05:29:59.404Z,13.00
2022-08-16T05:32:36.516Z,12.15
2022-08-16T05:35:14.998Z,11.77
2022-08-16T05:38:05.950Z,13.57
2022-08-16T05:40:59.966Z,13.15
2022-08-16T05:43:43.470Z,14.43
2022-08-16T05:46:29.056Z,12.82
2022-08-16T05:49:08.889Z,12.55
2022-08-16T05:51:41.540Z,12.60
2022-08-16T05:54:13.963Z,12.75
2022-08-16T05:56:43.256Z,12.65
2022-08-16T05:59:11.067Z,12.88
2022-08-16T06:01:39.743Z,16.42
2022-08-16T06:04:13.088Z,16.25
2022-08-16T06:06:57.471Z,12.68
2022-08-16T06:09:43.838Z,15.27
2022-08-16T06:12:27.500Z,10.23
2022-08-16T06:15:07.868Z,12.98
2022-08-16T06:17:43.935Z,11.60
2022-08-16T06:20:34.867Z,9.80
2022-08-16T06:23:17.057Z,10.35
2022-08-16T06:25:55.934Z,9.90
2022-08-16T06:28:34.865Z,8.90
2022-08-16T06:31:05.849Z,9.95
2022-08-16T06:33:41.800Z,9.60
2022-08-16T06:36:11.804Z,13.73
2022-08-16T06:38:55.316Z,12.50
2022-08-16T06:41:41.229Z,9.82
2022-08-16T06:44:20.797Z,11.73
2022-08-16T06:46:52.229Z,11.50
2022-08-16T06:49:21.042Z,10.80
2022-08-16T06:51:48.904Z,9.48
2022-08-16T06:54:21.723Z,10.93
2022-08-16T06:56:53.914Z,9.95
2022-08-16T06:59:25.684Z,10.90
2022-08-16T07:01:58.206Z,11.70
2022-08-16T07:04:33.284Z,9.02
2022-08-16T07:07:20.359Z,8.82
2022-08-16T07:09:47.895Z,10.25
2022-08-16T07:12:19.397Z,10.95
2022-08-16T07:14:49.467Z,10.35
2022-08-16T07:17:19.350Z,7.97
2022-08-16T07:20:04.078Z,8.27
2022-08-16T07:22:50.841Z,13.32
2022-08-16T07:25:24.681Z,9.80
2022-08-16T07:27:52.387Z,8.23
2022-08-16T07:30:45.313Z,9.55
2022-08-16T07:33:21.426Z,9.02
2022-08-16T07:36:08.661Z,8.15
2022-08-16T07:38:42.265Z,9.85
2022-08-16T07:41:10.942Z,9.70
2022-08-16T07:43:43.969Z,7.38
2022-08-16T07:46:38.402Z,7.30
2022-08-16T07:49:11.258Z,7.50
2022-08-16T07:51:39.934Z,7.55
2022-08-16T07:56:45.185Z,5.80
2022-08-16T07:59:12.393Z,6.32
2022-08-16T08:01:42.004Z,13.77
2022-08-16T08:04:13.157Z,6.93
2022-08-16T08:06:42.558Z,5.10
2022-08-16T08:09:17.301Z,6.43
2022-08-16T08:12:00.647Z,6.93
2022-08-16T08:14:34.105Z,7.55
2022-08-16T08:17:01.862Z,7.15
2022-08-16T08:19:35.604Z,8.20
2022-08-16T08:22:06.022Z,5.18
2022-08-16T08:24:53.949Z,5.53
2022-08-16T08:27:27.534Z,4.55
2022-08-16T08:30:48.825Z,4.93
2022-08-16T08:32:51.222Z,4.15
2022-08-16T08:35:28.358Z,3.73
2022-08-16T08:37:57.063Z,5.80
2022-08-16T08:40:29.428Z,4.32
2022-08-16T08:43:11.489Z,4.72
2022-08-16T08:45:53.200Z,4.38
2022-08-16T08:48:33.472Z,4.78
2022-08-16T08:51:08.985Z,4.22
2022-08-16T08:53:43.616Z,8.07
2022-08-16T08:56:23.588Z,3.25
2022-08-16T08:59:00.164Z,4.18
2022-08-16T09:04:23.442Z,5.82
2022-08-16T09:06:53.514Z,3.67
2022-08-16T09:09:22.948Z,4.78
2022-08-16T09:12:04.407Z,3.67
2022-08-16T09:14:49.483Z,4.20
2022-08-16T09:17:45.405Z,4.00
2022-08-16T09:20:07.954Z,3.63
2022-08-16T09:22:35.372Z,5.45
2022-08-16T09:25:10.953Z,4.80
2022-08-16T09:27:56.428Z,2.80
2022-08-16T09:30:35.929Z,3.65
2022-08-16T09:33:11.685Z,2.78
2022-08-16T09:35:39.807Z,3.80
2022-08-16T09:38:12.823Z,4.38
2022-08-16T09:40:58.968Z,3.83
2022-08-16T09:44:00.251Z,4.13
2022-08-16T09:46:45.785Z,3.63
2022-08-16T09:49:03.481Z,4.45
2022-08-16T09:51:37.276Z,2.45
2022-08-16T09:54:06.137Z,3.83
2022-08-16T09:56:39.428Z,4.65
2022-08-16T09:59:22.305Z,5.07
2022-08-16T10:01:51.043Z,6.90
2022-08-16T10:04:30.294Z,6.28
2022-08-16T10:09:45.193Z,5.03
2022-08-16T10:12:42.393Z,3.90
2022-08-16T10:15:15.692Z,5.43
2022-08-16T10:18:01.245Z,4.65
2022-08-16T10:20:32.482Z,2.90
2022-08-16T10:23:07.329Z,7.75
2022-08-16T10:27:19.943Z,3.78
2022-08-16T10:28:29.524Z,4.38
2022-08-16T10:30:59.597Z,3.13
2022-08-16T10:33:29.691Z,3.72
2022-08-16T10:36:04.401Z,6.00
2022-08-16T10:38:36.489Z,4.07
2022-08-16T10:41:06.975Z,6.03
2022-08-16T10:43:36.355Z,2.88
2022-08-16T10:46:33.860Z,4.43
2022-08-16T10:48:53.176Z,3.13
2022-08-16T10:51:20.425Z,2.75
2022-08-16T10:54:01.175Z,2.47
2022-08-16T10:56:52.117Z,3.08
2022-08-16T10:59:39.014Z,3.65
2022-08-16T11:05:09.049Z,3.08
2022-08-16T11:07:43.304Z,5.18
2022-08-16T11:10:20.995Z,3.42
2022-08-16T11:13:58.330Z,2.10
2022-08-16T11:15:56.688Z,2.58
2022-08-16T11:19:03.980Z,3.42
2022-08-16T11:21:28.490Z,3.58
2022-08-16T11:23:58.964Z,2.45
2022-08-16T11:26:28.126Z,2.97
2022-08-16T11:29:13.637Z,2.97
2022-08-16T11:31:42.481Z,5.15
2022-08-16T11:34:19.805Z,3.05
2022-08-16T11:36:59.341Z,4.60
2022-08-16T11:39:31.979Z,3.00
2022-08-16T11:42:02.484Z,5.68
2022-08-16T11:44:52.226Z,3.17
2022-08-16T11:47:16.861Z,3.13
2022-08-16T11:49:43.966Z,3.20
2022-08-16T11:52:11.258Z,5.90
2022-08-16T11:54:40.171Z,3.03
2022-08-16T11:57:09.443Z,3.20
2022-08-16T11:59:39.765Z,2.72
2022-08-16T12:02:30.940Z,3.33
2022-08-16T12:07:23.502Z,1.90
2022-08-16T12:09:53.206Z,4.63
2022-08-16T12:12:23.397Z,1.90
2022-08-16T12:14:59.260Z,2.90
2022-08-16T12:17:31.705Z,3.35
2022-08-16T12:20:00.951Z,3.22
2022-08-16T12:22:29.029Z,2.72
2022-08-16T12:24:56.450Z,3.03
2022-08-16T12:27:25.328Z,5.32
2022-08-16T12:29:53.916Z,4.80
2022-08-16T12:32:37.513Z,2.13
2022-08-16T12:35:12.308Z,2.45
2022-08-16T12:37:41.661Z,2.50
2022-08-16T12:40:21.344Z,3.42
2022-08-16T12:42:58.530Z,3.80
2022-08-16T12:45:29.935Z,2.55
2022-08-16T12:48:33.606Z,4.50
2022-08-16T12:51:20.019Z,4.40
2022-08-16T12:53:53.417Z,2.28
2022-08-16T12:56:25.328Z,4.40
2022-08-16T12:58:55.877Z,3.00
2022-08-16T13:01:27.419Z,3.42
2022-08-16T13:04:11.455Z,3.53
2022-08-16T13:06:44.191Z,4.18
2022-08-16T13:09:20.495Z,4.97
2022-08-16T13:12:00.510Z,2.67
2022-08-16T13:14:33.518Z,2.38
2022-08-16T13:17:06.436Z,2.90
2022-08-16T13:20:05.399Z,3.03
2022-08-16T13:22:22.935Z,3.75
2022-08-16T13:24:52.807Z,3.35
2022-08-16T13:27:20.720Z,4.93
2022-08-16T13:30:01.999Z,3.50
2022-08-16T13:32:40.684Z,6.00
2022-08-16T13:35:11.713Z,4.80
2022-08-16T13:37:39.529Z,2.22
2022-08-16T13:40:09.440Z,4.68
2022-08-16T13:42:48.124Z,2.55
2022-08-16T13:45:17.032Z,3.85
2022-08-16T13:47:48.035Z,2.47
2022-08-16T13:50:31.443Z,4.57
2022-08-16T13:53:07.726Z,5.80
2022-08-16T13:55:35.010Z,2.80
2022-08-16T13:58:36.979Z,3.67
2022-08-16T14:00:52.891Z,4.22
2022-08-16T14:03:21.639Z,3.40
2022-08-16T14:05:52.699Z,3.10
2022-08-16T14:10:54.229Z,2.50
2022-08-16T14:13:21.933Z,2.75
2022-08-16T14:15:49.703Z,4.20
2022-08-16T14:18:20.064Z,4.47
2022-08-16T14:20:48.531Z,2.95
2022-08-16T14:23:17.043Z,3.90
2022-08-16T14:25:54.268Z,4.75
2022-08-16T14:28:24.311Z,4.18
2022-08-16T14:30:54.038Z,4.43
2022-08-16T14:33:21.199Z,3.65
2022-08-16T14:35:50.443Z,10.00
2022-08-16T14:38:23.449Z,3.67
2022-08-16T14:40:55.146Z,3.63
2022-08-16T14:43:24.925Z,5.20
2022-08-16T14:45:54.695Z,4.18
2022-08-16T14:48:25.824Z,5.53
2022-08-16T14:50:54.726Z,5.03
2022-08-16T14:53:24.178Z,3.30
2022-08-16T14:55:51.967Z,4.93
2022-08-16T14:58:20.289Z,6.68
2022-08-16T15:01:02.365Z,3.92
2022-08-16T15:03:30.178Z,3.53
2022-08-16T15:06:00.781Z,5.63
2022-08-16T15:08:36.446Z,4.22
2022-08-16T15:11:05.648Z,3.55
2022-08-16T15:13:32.787Z,3.95
2022-08-16T15:16:02.728Z,3.30
2022-08-16T15:18:32.348Z,5.03
2022-08-16T15:21:04.663Z,3.05
2022-08-16T15:23:33.833Z,5.43
2022-08-16T15:26:03.887Z,3.75
2022-08-16T15:28:33.514Z,4.03
2022-08-16T15:31:03.758Z,3.13
2022-08-16T15:33:34.218Z,3.78
2022-08-16T15:36:02.410Z,2.75
2022-08-16T15:38:58.059Z,3.47
2022-08-16T15:41:32.623Z,3.85
2022-08-16T15:44:05.558Z,3.13
2022-08-16T15:46:56.679Z,3.15
2022-08-16T15:49:34.918Z,3.45
2022-08-16T15:52:10.503Z,4.05
2022-08-16T15:54:53.636Z,4.65
2022-08-16T15:57:24.873Z,4.28
2022-08-16T15:59:56.342Z,4.85
2022-08-16T16:02:39.000Z,4.47
2022-08-16T16:05:09.564Z,5.05
2022-08-16T16:07:55.614Z,3.72
2022-08-16T16:10:29.505Z,5.63
2022-08-16T16:13:00.232Z,3.10
2022-08-16T16:15:31.300Z,4.10
2022-08-16T16:17:58.974Z,4.13
2022-08-16T16:20:33.371Z,3.05
2022-08-16T16:23:10.646Z,3.92
2022-08-16T16:25:44.093Z,3.03
2022-08-16T16:28:46.105Z,3.42
2022-08-16T16:31:08.102Z,3.35
2022-08-16T16:33:39.863Z,4.00
2022-08-16T16:36:08.755Z,7.68
2022-08-16T16:38:35.910Z,4.53
2022-08-16T16:41:09.412Z,3.90
2022-08-16T16:43:40.453Z,3.65
2022-08-16T16:46:32.787Z,4.43
2022-08-16T16:48:56.991Z,3.85
2022-08-16T16:51:24.531Z,3.75
2022-08-16T16:53:56.965Z,5.15
2022-08-16T16:56:30.227Z,3.95
2022-08-16T16:59:04.593Z,4.63
2022-08-16T17:01:56.771Z,5.78
2022-08-16T17:04:32.028Z,3.67
2022-08-16T17:07:02.051Z,4.35
2022-08-16T17:09:29.659Z,4.20
2022-08-16T17:11:58.173Z,5.00
2022-08-16T17:14:32.169Z,8.63
2022-08-16T17:17:09.133Z,5.32
2022-08-16T17:19:41.262Z,4.22
2022-08-16T17:22:14.958Z,6.97
2022-08-16T17:24:50.825Z,3.90
2022-08-16T17:27:32.988Z,5.55
2022-08-16T17:30:15.823Z,6.72
2022-08-16T17:32:50.694Z,5.38
2022-08-16T17:35:34.267Z,6.85
2022-08-16T17:38:06.339Z,4.13
2022-08-16T17:40:47.801Z,3.13
2022-08-16T17:43:32.813Z,4.47
2022-08-16T17:46:00.721Z,17.25
2022-08-16T17:48:30.994Z,6.18
2022-08-16T17:50:59.459Z,3.50
2022-08-16T17:53:27.015Z,3.95
2022-08-16T17:55:54.768Z,4.35
2022-08-16T17:58:24.151Z,5.60
2022-08-16T18:00:55.771Z,3.03
2022-08-16T18:04:07.148Z,5.82
2022-08-16T18:06:18.540Z,8.55
2022-08-16T18:08:48.808Z,3.60
2022-08-16T18:11:25.778Z,3.67
2022-08-16T18:13:54.399Z,3.50
2022-08-16T18:16:21.888Z,4.10
2022-08-16T18:18:49.034Z,3.30
2022-08-16T18:21:34.975Z,4.40
2022-08-16T18:24:02.191Z,3.58
2022-08-16T18:26:29.951Z,9.27
2022-08-16T18:28:57.075Z,5.57
2022-08-16T18:31:25.108Z,3.63
2022-08-16T18:33:55.735Z,3.97
2022-08-16T18:36:24.591Z,3.55
2022-08-16T18:38:52.935Z,2.97
2022-08-16T18:41:23.070Z,3.08
2022-08-16T18:44:24.217Z,2.03
2022-08-16T18:46:42.466Z,3.58
2022-08-16T18:49:10.039Z,5.47
2022-08-16T18:51:42.447Z,2.35
2022-08-16T18:54:11.687Z,4.15
2022-08-16T18:56:55.313Z,3.70
2022-08-16T18:59:27.699Z,3.20
2022-08-16T19:02:00.166Z,4.00
2022-08-16T19:04:47.646Z,3.35
2022-08-16T19:07:30.670Z,6.20
2022-08-16T19:10:01.098Z,2.10
2022-08-16T19:12:38.477Z,4.18
2022-08-16T19:15:20.592Z,2.40
2022-08-16T19:17:48.149Z,6.72
2022-08-16T19:20:19.014Z,3.60
2022-08-16T19:23:05.222Z,5.32
2022-08-16T19:25:48.697Z,2.42
2022-08-16T19:28:51.159Z,5.20
2022-08-16T19:31:13.348Z,1.80
2022-08-16T19:33:53.646Z,5.32
2022-08-16T19:36:42.126Z,4.10
2022-08-16T19:39:15.213Z,4.03
2022-08-16T19:41:51.964Z,4.97
2022-08-16T19:46:49.831Z,8.63
2022-08-16T19:49:17.291Z,7.22
2022-08-16T19:51:45.714Z,4.07
2022-08-16T19:54:13.256Z,5.18
2022-08-16T19:56:40.477Z,6.95
2022-08-16T19:59:23.103Z,7.47
2022-08-16T20:01:55.219Z,5.50
2022-08-16T20:04:23.887Z,4.22
2022-08-16T20:06:54.484Z,2.90
2022-08-16T20:09:22.515Z,4.45
2022-08-16T20:11:52.341Z,4.07
2022-08-16T20:14:25.349Z,4.93
2022-08-16T20:16:58.763Z,3.15
2022-08-16T20:19:28.279Z,3.42
2022-08-16T20:21:56.877Z,3.85
2022-08-16T20:24:35.298Z,4.47
2022-08-16T20:27:06.199Z,3.53
2022-08-16T20:29:33.794Z,3.22
2022-08-16T20:32:00.978Z,5.88
2022-08-16T20:34:28.069Z,3.65
2022-08-16T20:36:55.186Z,4.22
2022-08-16T20:39:24.191Z,5.47
2022-08-16T20:41:51.579Z,5.68
2022-08-16T20:44:22.858Z,3.63
2022-08-16T20:46:52.745Z,9.25
2022-08-16T20:49:19.856Z,6.95
2022-08-16T20:51:50.538Z,4.82
2022-08-16T20:54:20.855Z,3.95
2022-08-16T20:56:48.093Z,4.15
2022-08-16T20:59:15.644Z,3.83
2022-08-16T21:01:49.594Z,4.82
2022-08-16T21:04:19.951Z,6.65
2022-08-16T21:06:53.500Z,3.05
2022-08-16T21:09:24.354Z,2.97
2022-08-16T21:11:56.148Z,4.47
2022-08-16T21:14:24.013Z,6.85
2022-08-16T21:16:51.384Z,2.75
2022-08-16T21:19:19.771Z,3.88
2022-08-16T21:21:46.898Z,4.35
2022-08-16T21:24:14.251Z,3.33
2022-08-16T21:26:41.383Z,4.85
2022-08-16T21:29:17.073Z,6.15
2022-08-16T21:31:44.330Z,6.55
2022-08-16T21:34:11.431Z,5.43
2022-08-16T21:36:38.529Z,6.70
2022-08-16T21:39:06.258Z,5.00
2022-08-16T21:41:35.377Z,4.88
2022-08-16T21:46:29.457Z,5.63
2022-08-16T21:48:56.593Z,6.63
2022-08-16T21:51:23.692Z,4.45
2022-08-16T21:53:50.840Z,4.25
2022-08-16T21:56:18.218Z,4.32
2022-08-16T21:58:46.437Z,4.75
2022-08-16T22:01:20.971Z,4.03
2022-08-16T22:03:48.209Z,4.57
2022-08-16T22:06:28.951Z,4.47
2022-08-16T22:08:56.182Z,5.45
2022-08-16T22:11:24.565Z,5.05
2022-08-16T22:13:58.823Z,4.27
2022-08-16T22:16:33.824Z,3.83
2022-08-16T22:19:02.524Z,3.78
2022-08-16T22:21:31.072Z,4.57
2022-08-16T22:23:59.037Z,4.65
2022-08-16T22:26:30.162Z,4.57
2022-08-16T22:29:05.113Z,4.07
2022-08-16T22:31:32.899Z,3.67
2022-08-16T22:34:01.797Z,3.25
2022-08-16T22:36:31.570Z,2.20
2022-08-16T22:39:01.192Z,4.18
2022-08-16T22:41:31.843Z,5.75
2022-08-16T22:44:00.904Z,4.75
2022-08-16T22:48:55.267Z,7.13
2022-08-16T22:51:24.821Z,4.97
2022-08-16T22:53:52.709Z,8.60
2022-08-16T22:56:20.978Z,4.57
2022-08-16T22:58:49.122Z,3.10
2022-08-16T23:01:18.236Z,4.13
2022-08-16T23:03:45.668Z,4.05
2022-08-16T23:06:13.698Z,3.28
2022-08-16T23:08:41.958Z,3.50
2022-08-16T23:11:17.959Z,2.63
2022-08-16T23:13:52.956Z,6.03
2022-08-16T23:16:33.009Z,2.78
2022-08-16T23:19:12.493Z,3.10
2022-08-16T23:21:43.720Z,5.17
2022-08-16T23:24:11.737Z,3.65
2022-08-16T23:26:45.642Z,2.33
2022-08-16T23:29:24.059Z,3.40
2022-08-16T23:31:56.719Z,6.63
2022-08-16T23:34:24.521Z,3.20
2022-08-16T23:36:51.701Z,3.80
2022-08-16T23:39:18.871Z,7.03
2022-08-16T23:41:46.039Z,3.60
2022-08-16T23:44:57.029Z,3.72
2022-08-16T23:47:00.299Z,3.47
2022-08-16T23:49:59.556Z,3.50
2022-08-16T23:52:14.893Z,4.50
2022-08-16T23:54:41.999Z,3.00
2022-08-16T23:57:09.111Z,6.85
2022-08-16T23:59:52.137Z,4.43
